Terminal Aerodrome Forecast
Issued by NWS

Home | Current Version | Previous Version | Text Only | Print | Product List | Glossary On
Versions: 1 2 3 4 5 6 7 8 9 10 11 12
000
FTUS46 KSEW 040520
TAFCLM
TAF
KCLM 040520Z 0406/0506 28015KT P6SM SCT020 BKN110 OVC200
     FM040800 28015KT P6SM VCSH BKN013 OVC080
     FM041700 28006KT P6SM VCSH BKN022 BKN050
     FM050000 29010KT P6SM SCT040 BKN080 OVC200=

USA.gov is the U.S. government's official web portal to all federal, state and local government web resources and services.